createdAt,value
2022-08-19T00:01:40.464Z,168.18
2022-08-19T00:04:10.432Z,202.40
2022-08-19T00:06:39.548Z,160.25
2022-08-19T00:09:09.144Z,152.02
2022-08-19T00:11:38.950Z,151.35
2022-08-19T00:14:08.335Z,141.55
2022-08-19T00:16:36.203Z,137.50
2022-08-19T00:19:04.015Z,152.43
2022-08-19T00:21:32.257Z,164.50
2022-08-19T00:24:01.076Z,144.77
2022-08-19T00:26:29.722Z,138.88
2022-08-19T00:28:58.842Z,160.93
2022-08-19T00:31:28.806Z,161.77
2022-08-19T00:33:56.548Z,191.70
2022-08-19T00:36:24.610Z,169.65
2022-08-19T00:38:52.652Z,168.20
2022-08-19T00:41:22.389Z,158.45
2022-08-19T00:44:01.385Z,152.45
2022-08-19T00:46:29.262Z,152.52
2022-08-19T00:48:58.334Z,275.55
2022-08-19T00:51:27.503Z,210.05
2022-08-19T00:53:56.609Z,240.40
2022-08-19T00:56:24.733Z,199.88
2022-08-19T00:58:52.508Z,264.30
2022-08-19T01:01:21.563Z,176.00
2022-08-19T01:03:58.121Z,183.80
2022-08-19T01:06:26.888Z,183.02
2022-08-19T01:08:55.276Z,188.20
2022-08-19T01:11:23.190Z,203.63
2022-08-19T01:13:52.675Z,217.07
2022-08-19T01:16:24.017Z,195.98
2022-08-19T01:18:52.335Z,204.70
2022-08-19T01:21:24.320Z,181.45
2022-08-19T01:23:53.757Z,224.13
2022-08-19T01:26:24.082Z,199.98
2022-08-19T01:28:53.422Z,249.93
2022-08-19T01:31:27.377Z,214.30
2022-08-19T01:33:57.951Z,264.48
2022-08-19T01:36:29.130Z,221.50
2022-08-19T01:39:00.410Z,267.45
2022-08-19T01:41:28.183Z,250.15
2022-08-19T01:44:13.644Z,238.60
2022-08-19T01:46:45.552Z,999.90
2022-08-19T01:49:13.325Z,999.90
2022-08-19T01:51:41.066Z,999.90
2022-08-19T01:54:10.657Z,999.90
2022-08-19T01:56:39.282Z,999.90
2022-08-19T01:59:12.617Z,999.90
2022-08-19T02:01:40.396Z,999.90
2022-08-19T02:04:08.414Z,999.90
2022-08-19T02:06:36.622Z,999.90
2022-08-19T02:09:07.402Z,999.90
2022-08-19T02:11:38.455Z,999.90
2022-08-19T02:14:08.086Z,999.90
2022-08-19T02:16:36.078Z,179.85
2022-08-19T02:19:04.424Z,999.90
2022-08-19T02:21:32.512Z,999.90
2022-08-19T02:24:00.498Z,999.90
2022-08-19T02:26:28.818Z,999.90
2022-08-19T02:28:58.469Z,999.90
2022-08-19T02:31:28.879Z,999.90
2022-08-19T02:33:57.072Z,999.90
2022-08-19T02:36:26.428Z,999.90
2022-08-19T02:38:55.512Z,999.90
2022-08-19T02:41:27.953Z,999.90
2022-08-19T02:44:29.824Z,999.90
2022-08-19T02:46:48.533Z,999.90
2022-08-19T02:49:17.148Z,999.90
2022-08-19T02:51:46.617Z,999.90
2022-08-19T02:54:15.110Z,999.90
2022-08-19T02:56:44.378Z,999.90
2022-08-19T02:59:13.654Z,999.90
2022-08-19T03:01:43.323Z,999.90
2022-08-19T03:04:13.274Z,999.90
2022-08-19T03:06:42.233Z,999.90
2022-08-19T03:09:10.226Z,999.90
2022-08-19T03:11:38.217Z,999.90
2022-08-19T03:14:08.270Z,999.90
2022-08-19T03:16:43.143Z,999.90
2022-08-19T03:19:10.864Z,999.90
2022-08-19T03:21:38.596Z,999.90
2022-08-19T03:24:09.018Z,999.90
2022-08-19T03:26:41.042Z,999.90
2022-08-19T03:29:09.847Z,999.90
2022-08-19T03:31:51.977Z,999.90
2022-08-19T03:34:22.976Z,999.90
2022-08-19T03:36:50.755Z,999.90
2022-08-19T03:39:19.382Z,999.90
2022-08-19T03:41:49.934Z,999.90
2022-08-19T03:44:38.525Z,999.90
2022-08-19T03:47:07.849Z,999.90
2022-08-19T03:49:36.146Z,999.90
2022-08-19T03:52:08.274Z,999.90
2022-08-19T03:54:36.579Z,999.90
2022-08-19T03:57:04.955Z,999.90
2022-08-19T03:59:34.725Z,999.90
2022-08-19T04:02:05.372Z,999.90
2022-08-19T04:04:34.472Z,999.90
2022-08-19T04:07:02.182Z,999.90
2022-08-19T04:09:29.964Z,999.90
2022-08-19T04:11:58.543Z,999.90
2022-08-19T04:14:32.603Z,999.90
2022-08-19T04:17:00.688Z,999.90
2022-08-19T04:19:29.530Z,999.90
2022-08-19T04:21:59.247Z,999.90
2022-08-19T04:24:27.084Z,999.90
2022-08-19T04:26:54.906Z,999.90
2022-08-19T04:29:26.062Z,999.90
2022-08-19T04:31:55.408Z,999.90
2022-08-19T04:34:24.941Z,999.90
2022-08-19T04:36:53.842Z,999.90
2022-08-19T04:39:45.333Z,999.90
2022-08-19T04:42:31.216Z,999.90
2022-08-19T04:44:59.526Z,999.90
2022-08-19T04:47:47.998Z,999.90
2022-08-19T04:50:16.565Z,999.90
2022-08-19T04:52:44.238Z,999.90
2022-08-19T04:55:15.152Z,999.90
2022-08-19T04:57:43.029Z,999.90
2022-08-19T05:00:12.241Z,999.90
2022-08-19T05:02:40.208Z,999.90
2022-08-19T05:05:09.462Z,999.90
2022-08-19T05:07:38.341Z,999.90
2022-08-19T05:10:07.572Z,999.90
2022-08-19T05:12:36.750Z,999.90
2022-08-19T05:15:06.646Z,999.90
2022-08-19T05:17:38.258Z,999.90
2022-08-19T05:20:25.832Z,999.90
2022-08-19T05:22:53.828Z,999.90
2022-08-19T05:25:22.899Z,999.90
2022-08-19T05:27:52.051Z,999.90
2022-08-19T05:30:24.439Z,999.90
2022-08-19T05:33:09.129Z,999.90
2022-08-19T05:35:38.080Z,999.90
2022-08-19T05:38:06.002Z,999.90
2022-08-19T05:40:37.030Z,999.90
2022-08-19T05:43:08.123Z,999.90
2022-08-19T05:45:41.080Z,999.90
2022-08-19T05:48:08.819Z,999.90
2022-08-19T05:50:38.132Z,999.90
2022-08-19T05:53:06.000Z,999.90
2022-08-19T05:55:33.735Z,999.90
2022-08-19T05:58:02.693Z,999.90
2022-08-19T06:00:32.315Z,999.90
2022-08-19T06:03:09.626Z,999.90
2022-08-19T06:05:44.730Z,999.90
2022-08-19T06:08:19.641Z,999.90
2022-08-19T06:10:47.551Z,999.90
2022-08-19T06:13:15.330Z,999.90
2022-08-19T06:15:47.525Z,999.90
2022-08-19T06:18:15.885Z,999.90
2022-08-19T06:20:55.599Z,999.90
2022-08-19T06:23:24.213Z,999.90
2022-08-19T06:25:52.213Z,999.90
2022-08-19T06:28:20.304Z,999.90
2022-08-19T06:30:49.822Z,999.90
2022-08-19T06:33:17.650Z,999.90
2022-08-19T06:35:46.450Z,999.90
2022-08-19T06:38:14.263Z,999.90
2022-08-19T06:43:16.871Z,999.90
2022-08-19T06:48:16.933Z,999.90
2022-08-19T06:50:46.279Z,999.90
2022-08-19T06:53:15.023Z,999.90
2022-08-19T06:55:43.206Z,999.90
2022-08-19T06:58:11.551Z,999.90
2022-08-19T07:00:40.659Z,999.90
2022-08-19T07:03:09.183Z,999.90
2022-08-19T07:05:45.730Z,999.90
2022-08-19T07:08:14.324Z,999.90
2022-08-19T07:10:45.349Z,999.90
2022-08-19T07:13:13.476Z,999.90
2022-08-19T07:15:41.361Z,999.90
2022-08-19T07:18:11.502Z,999.90
2022-08-19T07:20:41.898Z,999.90
2022-08-19T07:23:10.029Z,999.90
2022-08-19T07:25:44.462Z,999.90
2022-08-19T07:28:20.233Z,999.90
2022-08-19T07:30:53.086Z,999.90
2022-08-19T07:33:20.851Z,999.90
2022-08-19T07:35:50.806Z,999.90
2022-08-19T07:38:18.897Z,999.90
2022-08-19T07:40:47.111Z,999.90
2022-08-19T07:43:17.950Z,999.90
2022-08-19T07:45:48.052Z,999.90
2022-08-19T07:48:16.422Z,999.90
2022-08-19T07:50:44.233Z,999.90
2022-08-19T07:53:18.458Z,999.90
2022-08-19T07:56:04.192Z,999.90
2022-08-19T07:58:33.667Z,999.90
2022-08-19T08:01:01.793Z,999.90
2022-08-19T08:03:44.162Z,999.90
2022-08-19T08:06:29.683Z,999.90
2022-08-19T08:09:18.473Z,999.90
2022-08-19T08:11:49.788Z,999.90
2022-08-19T08:17:03.809Z,999.90
2022-08-19T08:19:43.020Z,999.90
2022-08-19T08:22:33.804Z,999.90
2022-08-19T08:25:08.181Z,999.90
2022-08-19T08:27:40.892Z,999.90
2022-08-19T08:30:12.030Z,999.90
2022-08-19T08:32:41.101Z,999.90
2022-08-19T08:35:10.722Z,999.90
2022-08-19T08:37:39.079Z,999.90
2022-08-19T08:40:13.974Z,999.90
2022-08-19T08:42:47.628Z,999.90
2022-08-19T08:45:16.998Z,999.90
2022-08-19T08:47:48.537Z,999.90
2022-08-19T08:50:20.702Z,409.88
2022-08-19T08:52:50.426Z,999.90
2022-08-19T08:55:24.323Z,999.90
2022-08-19T08:57:55.978Z,999.90
2022-08-19T09:00:27.565Z,999.90
2022-08-19T09:02:56.110Z,999.90
2022-08-19T09:05:25.866Z,999.90
2022-08-19T09:07:59.125Z,999.90
2022-08-19T09:10:31.835Z,999.90
2022-08-19T09:13:09.431Z,999.90
2022-08-19T09:15:41.412Z,999.90
2022-08-19T09:18:15.329Z,999.90
2022-08-19T09:20:48.409Z,999.90
2022-08-19T09:23:16.655Z,999.90
2022-08-19T09:25:45.740Z,999.90
2022-08-19T09:28:22.355Z,999.90
2022-08-19T09:30:54.935Z,999.90
2022-08-19T09:33:23.439Z,761.97
2022-08-19T09:35:53.630Z,999.90
2022-08-19T09:38:22.000Z,999.90
2022-08-19T09:40:51.482Z,999.90
2022-08-19T09:43:33.068Z,999.90
2022-08-19T09:46:10.009Z,999.90
2022-08-19T09:48:38.386Z,999.90
2022-08-19T09:51:12.014Z,999.90
2022-08-19T09:53:41.218Z,999.90
2022-08-19T09:56:10.771Z,999.90
2022-08-19T09:58:38.994Z,999.90
2022-08-19T10:01:08.483Z,999.90
2022-08-19T10:03:37.608Z,999.90
2022-08-19T10:06:14.698Z,999.90
2022-08-19T10:08:50.255Z,999.90
2022-08-19T10:11:27.315Z,999.90
2022-08-19T10:13:55.858Z,999.90
2022-08-19T10:16:26.043Z,999.90
2022-08-19T10:18:58.753Z,999.90
2022-08-19T10:21:28.842Z,999.90
2022-08-19T10:24:04.826Z,999.90
2022-08-19T10:26:37.069Z,999.90
2022-08-19T10:29:09.328Z,999.90
2022-08-19T10:32:00.924Z,999.90
2022-08-19T10:34:27.774Z,999.90
2022-08-19T10:37:01.223Z,999.90
2022-08-19T10:39:30.999Z,999.90
2022-08-19T10:42:00.854Z,999.90
2022-08-19T10:44:32.261Z,999.90
2022-08-19T10:47:00.957Z,999.90
2022-08-19T10:49:28.832Z,999.90
2022-08-19T10:52:18.725Z,999.90
2022-08-19T10:58:01.278Z,999.90
2022-08-19T11:00:27.929Z,999.90
2022-08-19T11:02:56.748Z,999.90
2022-08-19T11:05:24.615Z,999.90
2022-08-19T11:07:53.115Z,999.90
2022-08-19T11:10:22.206Z,999.90
2022-08-19T11:12:54.089Z,999.90
2022-08-19T11:15:21.874Z,999.90
2022-08-19T11:17:49.641Z,999.90
2022-08-19T11:20:18.541Z,999.90
2022-08-19T11:22:46.591Z,999.90
2022-08-19T11:25:16.660Z,999.90
2022-08-19T11:27:45.830Z,999.90
2022-08-19T11:30:16.090Z,999.90
2022-08-19T11:32:48.747Z,806.25
2022-08-19T11:35:18.781Z,999.90
2022-08-19T11:37:46.521Z,999.90
2022-08-19T11:40:14.335Z,999.90
2022-08-19T11:42:57.815Z,999.90
2022-08-19T11:45:28.022Z,999.90
2022-08-19T11:47:55.843Z,999.90
2022-08-19T11:50:28.103Z,999.90
2022-08-19T11:52:57.081Z,999.90
2022-08-19T11:55:28.265Z,999.90
2022-08-19T11:57:56.081Z,999.90
2022-08-19T12:00:25.910Z,999.90
2022-08-19T12:02:56.024Z,999.90
2022-08-19T12:05:23.722Z,999.90
2022-08-19T12:07:51.433Z,999.90
2022-08-19T12:10:24.545Z,999.90
2022-08-19T12:12:58.571Z,999.90
2022-08-19T12:15:37.076Z,999.90
2022-08-19T12:18:06.103Z,999.90
2022-08-19T12:20:37.132Z,999.90
2022-08-19T12:23:05.514Z,999.90
2022-08-19T12:25:34.112Z,999.90
2022-08-19T12:28:02.805Z,999.90
2022-08-19T12:30:33.492Z,999.90
2022-08-19T12:33:01.192Z,999.90
2022-08-19T12:35:30.411Z,999.90
2022-08-19T12:37:58.325Z,999.90
2022-08-19T12:40:26.759Z,999.90
2022-08-19T12:42:54.760Z,999.90
2022-08-19T12:45:23.432Z,999.90
2022-08-19T12:47:55.270Z,999.90
2022-08-19T12:50:24.443Z,999.90
2022-08-19T12:52:52.226Z,999.90
2022-08-19T12:55:20.550Z,999.90
2022-08-19T12:57:49.439Z,999.90
2022-08-19T13:00:19.388Z,999.90
2022-08-19T13:02:50.640Z,999.90
2022-08-19T13:05:23.317Z,539.97
2022-08-19T13:07:52.322Z,999.90
2022-08-19T13:10:22.579Z,999.90
2022-08-19T13:12:52.248Z,999.90
2022-08-19T13:15:23.723Z,999.90
2022-08-19T13:17:53.892Z,999.90
2022-08-19T13:20:23.970Z,999.90
2022-08-19T13:22:52.466Z,999.90
2022-08-19T13:25:21.798Z,999.90
2022-08-19T13:27:50.497Z,999.90
2022-08-19T13:30:37.172Z,999.90
2022-08-19T13:33:16.071Z,999.90
2022-08-19T13:35:48.966Z,999.90
2022-08-19T13:38:18.452Z,999.90
2022-08-19T13:40:47.330Z,999.90
2022-08-19T13:43:23.118Z,999.90
2022-08-19T13:45:56.932Z,999.90
2022-08-19T13:48:26.216Z,999.90
2022-08-19T13:50:55.354Z,999.90
2022-08-19T13:53:23.206Z,999.90
2022-08-19T13:55:52.208Z,999.90
2022-08-19T13:58:23.918Z,999.90
2022-08-19T14:00:51.707Z,999.90
2022-08-19T14:03:19.505Z,999.90
2022-08-19T14:05:47.743Z,999.90
2022-08-19T14:08:16.963Z,999.90
2022-08-19T14:10:45.681Z,999.90
2022-08-19T14:13:16.629Z,999.90
2022-08-19T14:15:44.327Z,999.90
2022-08-19T14:18:12.404Z,999.90
2022-08-19T14:20:40.137Z,999.90
2022-08-19T14:23:07.936Z,999.90
2022-08-19T14:25:37.297Z,999.90
2022-08-19T14:28:05.478Z,999.90
2022-08-19T14:30:35.195Z,999.90
2022-08-19T14:33:03.976Z,999.90
2022-08-19T14:35:35.574Z,999.90
2022-08-19T14:38:04.376Z,999.90
2022-08-19T14:40:33.102Z,999.90
2022-08-19T14:43:05.416Z,999.90
2022-08-19T14:45:36.663Z,999.90
2022-08-19T14:48:05.486Z,999.90
2022-08-19T14:50:33.231Z,999.90
2022-08-19T14:53:05.312Z,999.90
2022-08-19T14:55:37.784Z,999.90
2022-08-19T14:58:08.220Z,999.90
2022-08-19T15:00:37.152Z,999.90
2022-08-19T15:03:05.142Z,999.90
2022-08-19T15:05:32.907Z,999.90
2022-08-19T15:08:05.121Z,999.90
2022-08-19T15:10:32.863Z,999.90
2022-08-19T15:13:00.789Z,999.90
2022-08-19T15:15:30.649Z,999.90
2022-08-19T15:18:03.268Z,999.90
2022-08-19T15:20:31.689Z,999.90
2022-08-19T15:22:59.767Z,999.90
2022-08-19T15:25:29.128Z,999.90
2022-08-19T15:27:57.337Z,999.90
2022-08-19T15:30:29.866Z,999.90
2022-08-19T15:32:59.874Z,999.90
2022-08-19T15:35:28.046Z,999.90
2022-08-19T15:37:56.550Z,999.90
2022-08-19T15:40:25.762Z,999.90
2022-08-19T15:42:54.302Z,999.90
2022-08-19T15:45:25.498Z,999.90
2022-08-19T15:47:55.391Z,999.90
2022-08-19T15:50:25.495Z,999.90
2022-08-19T15:52:55.367Z,999.90
2022-08-19T15:55:33.649Z,999.90
2022-08-19T15:58:21.844Z,999.90
2022-08-19T16:01:15.055Z,999.90
2022-08-19T16:04:01.261Z,999.90
2022-08-19T16:06:31.447Z,999.90
2022-08-19T16:09:02.827Z,999.90
2022-08-19T16:11:32.449Z,999.90
2022-08-19T16:14:00.857Z,999.90
2022-08-19T16:16:33.504Z,999.90
2022-08-19T16:19:03.906Z,999.90
2022-08-19T16:21:33.311Z,999.90
2022-08-19T16:24:02.412Z,999.90
2022-08-19T16:26:31.598Z,999.90
2022-08-19T16:29:02.555Z,999.90
2022-08-19T16:33:58.079Z,999.90
2022-08-19T16:36:25.854Z,999.90
2022-08-19T16:38:56.087Z,999.90
2022-08-19T16:41:24.208Z,999.90
2022-08-19T16:43:53.473Z,999.90
2022-08-19T16:46:22.699Z,999.90
2022-08-19T16:48:51.555Z,999.90
2022-08-19T16:51:19.326Z,999.90
2022-08-19T16:53:47.086Z,999.90
2022-08-19T16:56:16.440Z,999.90
2022-08-19T16:58:44.233Z,999.90
2022-08-19T17:01:12.064Z,999.90
2022-08-19T17:03:39.958Z,999.90
2022-08-19T17:06:18.957Z,999.90
2022-08-19T17:11:19.447Z,999.90
2022-08-19T17:13:48.411Z,999.90
2022-08-19T17:16:16.830Z,999.90
2022-08-19T17:18:44.823Z,999.90
2022-08-19T17:21:13.401Z,999.90
2022-08-19T17:23:43.704Z,999.90
2022-08-19T17:26:15.865Z,999.90
2022-08-19T17:28:49.500Z,999.90
2022-08-19T17:31:18.932Z,999.90
2022-08-19T17:33:48.763Z,999.90
2022-08-19T17:36:19.997Z,35.75
2022-08-19T17:41:17.204Z,999.90
2022-08-19T17:43:45.173Z,999.90
2022-08-19T17:46:18.632Z,999.90
2022-08-19T17:48:51.862Z,999.90
2022-08-19T17:51:24.568Z,999.90
2022-08-19T17:53:54.172Z,999.90
2022-08-19T17:56:23.487Z,999.90
2022-08-19T17:59:00.056Z,557.20
2022-08-19T18:01:43.897Z,999.90
2022-08-19T18:04:19.734Z,999.90
2022-08-19T18:06:53.202Z,999.90
2022-08-19T18:09:23.813Z,19.10
2022-08-19T18:11:53.455Z,18.83
2022-08-19T18:14:28.052Z,19.60
2022-08-19T18:17:05.556Z,62.90
2022-08-19T18:19:41.275Z,68.65
2022-08-19T18:22:09.781Z,999.90
2022-08-19T18:24:39.122Z,999.90
2022-08-19T18:27:07.202Z,999.90
2022-08-19T18:29:38.293Z,999.90
2022-08-19T18:32:13.225Z,999.90
2022-08-19T18:34:41.878Z,999.90
2022-08-19T18:37:09.817Z,999.90
2022-08-19T18:39:55.011Z,999.90
2022-08-19T18:42:40.216Z,999.90
2022-08-19T18:45:26.137Z,32.20
2022-08-19T18:48:26.554Z,999.90
2022-08-19T18:50:56.381Z,999.90
2022-08-19T18:53:24.185Z,11.20
2022-08-19T18:55:53.852Z,11.27
2022-08-19T18:58:26.760Z,12.27
2022-08-19T19:00:55.829Z,13.70
2022-08-19T19:03:25.356Z,15.07
2022-08-19T19:05:53.245Z,15.85
2022-08-19T19:08:27.040Z,15.70
2022-08-19T19:10:55.892Z,13.98
2022-08-19T19:13:24.041Z,14.02
2022-08-19T19:15:51.791Z,13.73
2022-08-19T19:18:19.520Z,12.48
2022-08-19T19:20:49.502Z,4.40
2022-08-19T19:23:17.291Z,3.30
2022-08-19T19:25:51.099Z,3.50
2022-08-19T19:28:27.986Z,3.60
2022-08-19T19:30:58.680Z,3.53
2022-08-19T19:33:29.180Z,14.80
2022-08-19T19:35:59.521Z,17.05
2022-08-19T19:38:27.273Z,22.90
2022-08-19T19:40:54.978Z,21.45
2022-08-19T19:43:23.158Z,17.77
2022-08-19T19:45:52.296Z,12.30
2022-08-19T19:48:20.114Z,32.33
2022-08-19T19:50:53.284Z,22.13
2022-08-19T19:53:24.071Z,23.90
2022-08-19T19:55:57.615Z,19.33
2022-08-19T19:58:28.782Z,13.25
2022-08-19T20:00:57.736Z,55.92
2022-08-19T20:03:25.514Z,6.75
2022-08-19T20:05:54.824Z,6.70
2022-08-19T20:08:41.468Z,213.02
2022-08-19T20:11:09.514Z,24.40
2022-08-19T20:13:40.538Z,23.77
2022-08-19T20:16:08.385Z,24.38
2022-08-19T20:18:36.161Z,21.00
2022-08-19T20:21:03.855Z,18.20
2022-08-19T20:23:32.964Z,14.38
2022-08-19T20:26:01.060Z,14.80
2022-08-19T20:28:29.968Z,22.48
2022-08-19T20:30:58.439Z,21.70
2022-08-19T20:33:26.462Z,22.90
2022-08-19T20:35:54.416Z,23.05
2022-08-19T20:38:23.019Z,21.33
2022-08-19T20:40:52.837Z,22.15
2022-08-19T20:43:21.528Z,18.58
2022-08-19T20:45:49.304Z,19.13
2022-08-19T20:48:17.084Z,20.60
2022-08-19T20:50:45.001Z,19.58
2022-08-19T20:53:14.598Z,19.90
2022-08-19T20:55:45.364Z,100.03
2022-08-19T20:58:14.999Z,180.95
2022-08-19T21:00:44.788Z,56.03
2022-08-19T21:03:12.949Z,26.52
2022-08-19T21:05:40.827Z,21.75
2022-08-19T21:08:09.157Z,35.53
2022-08-19T21:10:40.545Z,135.65
2022-08-19T21:13:10.222Z,146.55
2022-08-19T21:15:40.686Z,45.70
2022-08-19T21:18:08.434Z,36.83
2022-08-19T21:20:36.266Z,22.42
2022-08-19T21:23:04.570Z,999.90
2022-08-19T21:25:32.520Z,999.90
2022-08-19T21:28:00.488Z,999.90
2022-08-19T21:30:28.528Z,999.90
2022-08-19T21:32:57.693Z,999.90
2022-08-19T21:35:25.432Z,999.90
2022-08-19T21:37:53.529Z,999.90
2022-08-19T21:40:21.998Z,999.90
2022-08-19T21:42:49.771Z,999.90
2022-08-19T21:45:18.398Z,999.90
2022-08-19T21:47:46.268Z,15.85
2022-08-19T21:50:15.962Z,296.90
2022-08-19T21:52:43.643Z,16.60
2022-08-19T21:55:12.100Z,25.17
2022-08-19T21:57:41.489Z,27.52
2022-08-19T22:00:14.374Z,25.20
2022-08-19T22:02:43.813Z,32.50
2022-08-19T22:05:11.873Z,27.20
2022-08-19T22:07:42.900Z,21.20
2022-08-19T22:10:12.010Z,16.92
2022-08-19T22:12:51.359Z,18.75
2022-08-19T22:15:21.503Z,26.42
2022-08-19T22:17:49.796Z,33.72
2022-08-19T22:20:22.782Z,36.80
2022-08-19T22:22:56.990Z,50.78
2022-08-19T22:25:31.666Z,58.58
2022-08-19T22:28:01.570Z,55.97
2022-08-19T22:30:33.329Z,52.88
2022-08-19T22:33:04.225Z,42.55
2022-08-19T22:35:34.478Z,47.17
2022-08-19T22:38:06.419Z,51.78
2022-08-19T22:40:36.828Z,50.97
2022-08-19T22:43:06.508Z,35.75
2022-08-19T22:45:36.297Z,59.80
2022-08-19T22:48:07.699Z,47.90
2022-08-19T22:53:03.872Z,46.45
2022-08-19T22:55:32.327Z,35.70
2022-08-19T22:58:00.067Z,30.10
2022-08-19T23:00:29.116Z,25.75
2022-08-19T23:02:58.375Z,25.42
2022-08-19T23:05:28.662Z,22.10
2022-08-19T23:07:58.305Z,204.70
2022-08-19T23:10:28.915Z,17.10
2022-08-19T23:12:58.719Z,15.07
2022-08-19T23:15:28.059Z,14.55
2022-08-19T23:17:58.073Z,999.90
2022-08-19T23:20:27.352Z,999.90
2022-08-19T23:22:55.990Z,999.90
2022-08-19T23:25:28.232Z,999.90
2022-08-19T23:28:13.407Z,999.90
2022-08-19T23:30:43.674Z,999.90
2022-08-19T23:33:25.872Z,999.90
2022-08-19T23:36:15.985Z,16.55
2022-08-19T23:38:45.436Z,313.23
2022-08-19T23:41:16.137Z,999.90
2022-08-19T23:43:44.769Z,999.90
2022-08-19T23:46:14.096Z,999.90
2022-08-19T23:48:55.777Z,999.90
2022-08-19T23:51:23.506Z,999.90
2022-08-19T23:53:51.255Z,999.90
2022-08-19T23:56:21.449Z,999.90
2022-08-19T23:58:49.356Z,999.90
